sensor_id;sensor_type;location;lat;lon;timestamp;temperature;humidity
21429;DHT22;10875;50.444;30.540;2022-08-21T00:01:57;19.20;99.90
21429;DHT22;10875;50.444;30.540;2022-08-21T00:04:24;19.20;99.90
21429;DHT22;10875;50.444;30.540;2022-08-21T00:06:50;19.20;99.90
21429;DHT22;10875;50.444;30.540;2022-08-21T00:09:18;19.20;99.90
21429;DHT22;10875;50.444;30.540;2022-08-21T00:11:44;19.20;99.90
21429;DHT22;10875;50.444;30.540;2022-08-21T00:14:10;19.20;99.90
21429;DHT22;10875;50.444;30.540;2022-08-21T00:16:36;19.10;99.90
21429;DHT22;10875;50.444;30.540;2022-08-21T00:19:03;19.00;99.90
21429;DHT22;10875;50.444;30.540;2022-08-21T00:21:28;19.10;99.90
21429;DHT22;10875;50.444;30.540;2022-08-21T00:23:54;19.00;99.90
21429;DHT22;10875;50.444;30.540;2022-08-21T00:26:20;19.00;99.90
21429;DHT22;10875;50.444;30.540;2022-08-21T00:28:46;18.90;99.90
21429;DHT22;10875;50.444;30.540;2022-08-21T00:31:14;18.90;99.90
21429;DHT22;10875;50.444;30.540;2022-08-21T00:33:40;18.90;99.90
21429;DHT22;10875;50.444;30.540;2022-08-21T00:36:06;18.90;99.90
21429;DHT22;10875;50.444;30.540;2022-08-21T00:38:32;18.80;99.90
21429;DHT22;10875;50.444;30.540;2022-08-21T00:41:00;18.80;99.90
21429;DHT22;10875;50.444;30.540;2022-08-21T00:43:31;18.70;99.90
21429;DHT22;10875;50.444;30.540;2022-08-21T00:45:58;18.70;99.90
21429;DHT22;10875;50.444;30.540;2022-08-21T00:48:24;18.70;99.90
21429;DHT22;10875;50.444;30.540;2022-08-21T00:51:08;18.70;99.90
21429;DHT22;10875;50.444;30.540;2022-08-21T00:53:42;18.60;99.90
21429;DHT22;10875;50.444;30.540;2022-08-21T00:56:11;18.60;99.90
21429;DHT22;10875;50.444;30.540;2022-08-21T00:58:39;18.60;99.90
21429;DHT22;10875;50.444;30.540;2022-08-21T01:01:06;18.60;99.90
21429;DHT22;10875;50.444;30.540;2022-08-21T01:03:33;18.60;99.90
21429;DHT22;10875;50.444;30.540;2022-08-21T01:05:59;18.50;99.90
21429;DHT22;10875;50.444;30.540;2022-08-21T01:08:25;18.50;99.90
21429;DHT22;10875;50.444;30.540;2022-08-21T01:10:53;18.50;99.90
21429;DHT22;10875;50.444;30.540;2022-08-21T01:13:19;18.60;99.90
21429;DHT22;10875;50.444;30.540;2022-08-21T01:15:48;18.50;99.90
21429;DHT22;10875;50.444;30.540;2022-08-21T01:18:16;18.50;99.90
21429;DHT22;10875;50.444;30.540;2022-08-21T01:23:15;18.50;99.90
21429;DHT22;10875;50.444;30.540;2022-08-21T01:25:41;18.60;99.90
21429;DHT22;10875;50.444;30.540;2022-08-21T01:28:13;18.50;99.90
21429;DHT22;10875;50.444;30.540;2022-08-21T01:30:40;18.50;99.90
21429;DHT22;10875;50.444;30.540;2022-08-21T01:33:07;18.60;99.90
21429;DHT22;10875;50.444;30.540;2022-08-21T01:35:33;18.50;99.90
21429;DHT22;10875;50.444;30.540;2022-08-21T01:37:59;18.50;99.90
21429;DHT22;10875;50.444;30.540;2022-08-21T01:40:25;18.60;99.90
21429;DHT22;10875;50.444;30.540;2022-08-21T01:42:50;18.60;99.90
21429;DHT22;10875;50.444;30.540;2022-08-21T01:45:16;18.60;99.90
21429;DHT22;10875;50.444;30.540;2022-08-21T01:47:43;18.60;99.90
21429;DHT22;10875;50.444;30.540;2022-08-21T01:50:13;18.60;99.90
21429;DHT22;10875;50.444;30.540;2022-08-21T01:52:39;18.60;99.90
21429;DHT22;10875;50.444;30.540;2022-08-21T01:55:07;18.60;99.90
21429;DHT22;10875;50.444;30.540;2022-08-21T01:57:33;18.60;99.90
21429;DHT22;10875;50.444;30.540;2022-08-21T01:59:59;18.60;99.90
21429;DHT22;10875;50.444;30.540;2022-08-21T02:02:25;18.60;99.90
21429;DHT22;10875;50.444;30.540;2022-08-21T02:04:50;18.70;99.90
21429;DHT22;10875;50.444;30.540;2022-08-21T02:07:16;18.70;99.90
21429;DHT22;10875;50.444;30.540;2022-08-21T02:09:42;18.80;99.90
21429;DHT22;10875;50.444;30.540;2022-08-21T02:12:09;18.80;99.90
21429;DHT22;10875;50.444;30.540;2022-08-21T02:14:34;18.80;99.90
21429;DHT22;10875;50.444;30.540;2022-08-21T02:17:01;18.80;99.90
21429;DHT22;10875;50.444;30.540;2022-08-21T02:19:26;18.80;99.90
21429;DHT22;10875;50.444;30.540;2022-08-21T02:21:52;18.80;99.90
21429;DHT22;10875;50.444;30.540;2022-08-21T02:24:17;18.70;99.90
21429;DHT22;10875;50.444;30.540;2022-08-21T02:26:43;18.70;99.90
21429;DHT22;10875;50.444;30.540;2022-08-21T02:29:09;18.70;99.90
21429;DHT22;10875;50.444;30.540;2022-08-21T02:31:34;18.70;99.90
21429;DHT22;10875;50.444;30.540;2022-08-21T02:34:00;18.70;99.90
21429;DHT22;10875;50.444;30.540;2022-08-21T02:36:26;18.70;99.90
21429;DHT22;10875;50.444;30.540;2022-08-21T02:38:51;18.70;99.90
21429;DHT22;10875;50.444;30.540;2022-08-21T02:41:19;18.70;99.90
21429;DHT22;10875;50.444;30.540;2022-08-21T02:43:46;18.70;99.90
21429;DHT22;10875;50.444;30.540;2022-08-21T02:46:14;18.70;99.90
21429;DHT22;10875;50.444;30.540;2022-08-21T02:48:40;18.70;99.90
21429;DHT22;10875;50.444;30.540;2022-08-21T02:51:16;18.70;99.90
21429;DHT22;10875;50.444;30.540;2022-08-21T02:53:43;18.70;99.90
21429;DHT22;10875;50.444;30.540;2022-08-21T02:56:11;18.70;99.90
21429;DHT22;10875;50.444;30.540;2022-08-21T02:58:42;18.60;99.90
21429;DHT22;10875;50.444;30.540;2022-08-21T03:01:09;18.50;99.90
21429;DHT22;10875;50.444;30.540;2022-08-21T03:03:40;18.50;99.90
21429;DHT22;10875;50.444;30.540;2022-08-21T03:06:08;18.50;99.90
21429;DHT22;10875;50.444;30.540;2022-08-21T03:08:35;18.40;99.90
21429;DHT22;10875;50.444;30.540;2022-08-21T03:11:01;18.40;99.90
21429;DHT22;10875;50.444;30.540;2022-08-21T03:13:27;18.40;99.90
21429;DHT22;10875;50.444;30.540;2022-08-21T03:15:53;18.40;99.90
21429;DHT22;10875;50.444;30.540;2022-08-21T03:18:19;18.30;99.90
21429;DHT22;10875;50.444;30.540;2022-08-21T03:20:45;18.30;99.90
21429;DHT22;10875;50.444;30.540;2022-08-21T03:23:11;18.30;99.90
21429;DHT22;10875;50.444;30.540;2022-08-21T03:25:38;18.40;99.90
21429;DHT22;10875;50.444;30.540;2022-08-21T03:28:08;18.30;99.90
21429;DHT22;10875;50.444;30.540;2022-08-21T03:30:35;18.30;99.90
21429;DHT22;10875;50.444;30.540;2022-08-21T03:33:00;18.30;99.90
21429;DHT22;10875;50.444;30.540;2022-08-21T03:35:27;18.30;99.90
21429;DHT22;10875;50.444;30.540;2022-08-21T03:37:53;18.30;99.90
21429;DHT22;10875;50.444;30.540;2022-08-21T03:40:20;18.30;99.90
21429;DHT22;10875;50.444;30.540;2022-08-21T03:42:46;18.40;99.90
21429;DHT22;10875;50.444;30.540;2022-08-21T03:45:13;18.40;99.90
21429;DHT22;10875;50.444;30.540;2022-08-21T03:47:51;18.30;99.90
21429;DHT22;10875;50.444;30.540;2022-08-21T03:50:16;18.30;99.90
21429;DHT22;10875;50.444;30.540;2022-08-21T03:52:42;18.30;99.90
21429;DHT22;10875;50.444;30.540;2022-08-21T03:55:08;18.20;99.90
21429;DHT22;10875;50.444;30.540;2022-08-21T03:57:33;18.20;99.90
21429;DHT22;10875;50.444;30.540;2022-08-21T03:59:59;18.20;99.90
21429;DHT22;10875;50.444;30.540;2022-08-21T04:02:25;18.20;99.90
21429;DHT22;10875;50.444;30.540;2022-08-21T04:04:50;18.20;99.90
21429;DHT22;10875;50.444;30.540;2022-08-21T04:07:16;18.20;99.90
21429;DHT22;10875;50.444;30.540;2022-08-21T04:09:43;18.20;99.90
21429;DHT22;10875;50.444;30.540;2022-08-21T04:12:09;18.20;99.90
21429;DHT22;10875;50.444;30.540;2022-08-21T04:14:35;18.20;99.90
21429;DHT22;10875;50.444;30.540;2022-08-21T04:17:00;18.30;99.90
21429;DHT22;10875;50.444;30.540;2022-08-21T04:19:26;18.30;99.90
21429;DHT22;10875;50.444;30.540;2022-08-21T04:21:52;18.30;99.90
21429;DHT22;10875;50.444;30.540;2022-08-21T04:24:17;18.40;99.90
21429;DHT22;10875;50.444;30.540;2022-08-21T04:26:43;18.40;99.90
21429;DHT22;10875;50.444;30.540;2022-08-21T04:29:08;18.40;99.90
21429;DHT22;10875;50.444;30.540;2022-08-21T04:31:35;18.50;99.90
21429;DHT22;10875;50.444;30.540;2022-08-21T04:34:03;18.50;99.90
21429;DHT22;10875;50.444;30.540;2022-08-21T04:36:30;18.50;99.90
21429;DHT22;10875;50.444;30.540;2022-08-21T04:38:55;18.50;99.90
21429;DHT22;10875;50.444;30.540;2022-08-21T04:41:21;18.60;99.90
21429;DHT22;10875;50.444;30.540;2022-08-21T04:43:47;18.70;99.90
21429;DHT22;10875;50.444;30.540;2022-08-21T04:46:12;18.60;99.90
21429;DHT22;10875;50.444;30.540;2022-08-21T04:48:38;18.70;99.90
21429;DHT22;10875;50.444;30.540;2022-08-21T04:51:19;18.70;99.90
21429;DHT22;10875;50.444;30.540;2022-08-21T04:56:30;18.80;99.90
21429;DHT22;10875;50.444;30.540;2022-08-21T04:59:00;18.80;99.90
21429;DHT22;10875;50.444;30.540;2022-08-21T05:01:31;18.90;99.90
21429;DHT22;10875;50.444;30.540;2022-08-21T05:03:59;18.90;99.90
21429;DHT22;10875;50.444;30.540;2022-08-21T05:06:25;19.00;99.90
21429;DHT22;10875;50.444;30.540;2022-08-21T05:08:55;19.10;99.90
21429;DHT22;10875;50.444;30.540;2022-08-21T05:11:21;19.10;99.90
21429;DHT22;10875;50.444;30.540;2022-08-21T05:13:48;19.10;99.90
21429;DHT22;10875;50.444;30.540;2022-08-21T05:16:14;19.10;99.90
21429;DHT22;10875;50.444;30.540;2022-08-21T05:18:41;19.20;99.90
21429;DHT22;10875;50.444;30.540;2022-08-21T05:21:07;19.20;99.90
21429;DHT22;10875;50.444;30.540;2022-08-21T05:23:33;19.00;99.90
21429;DHT22;10875;50.444;30.540;2022-08-21T05:25:58;19.20;99.90
21429;DHT22;10875;50.444;30.540;2022-08-21T05:28:24;19.20;99.90
21429;DHT22;10875;50.444;30.540;2022-08-21T05:30:51;19.30;99.90
21429;DHT22;10875;50.444;30.540;2022-08-21T05:33:17;19.40;99.90
21429;DHT22;10875;50.444;30.540;2022-08-21T05:35:42;19.50;99.90
21429;DHT22;10875;50.444;30.540;2022-08-21T05:38:08;19.50;99.90
21429;DHT22;10875;50.444;30.540;2022-08-21T05:40:34;19.50;99.90
21429;DHT22;10875;50.444;30.540;2022-08-21T05:43:00;19.50;99.90
21429;DHT22;10875;50.444;30.540;2022-08-21T05:45:29;19.60;99.90
21429;DHT22;10875;50.444;30.540;2022-08-21T05:47:55;19.60;99.90
21429;DHT22;10875;50.444;30.540;2022-08-21T05:50:21;19.60;99.90
21429;DHT22;10875;50.444;30.540;2022-08-21T05:52:47;19.60;99.90
21429;DHT22;10875;50.444;30.540;2022-08-21T05:55:12;19.60;99.90
21429;DHT22;10875;50.444;30.540;2022-08-21T05:57:38;19.70;99.90
21429;DHT22;10875;50.444;30.540;2022-08-21T06:00:09;19.70;99.90
21429;DHT22;10875;50.444;30.540;2022-08-21T06:02:37;19.80;99.90
21429;DHT22;10875;50.444;30.540;2022-08-21T06:05:03;19.80;99.90
21429;DHT22;10875;50.444;30.540;2022-08-21T06:07:29;19.90;99.90
21429;DHT22;10875;50.444;30.540;2022-08-21T06:09:54;20.00;99.90
21429;DHT22;10875;50.444;30.540;2022-08-21T06:12:20;20.00;99.90
21429;DHT22;10875;50.444;30.540;2022-08-21T06:14:45;20.20;99.90
21429;DHT22;10875;50.444;30.540;2022-08-21T06:17:12;20.20;99.90
21429;DHT22;10875;50.444;30.540;2022-08-21T06:19:39;20.20;99.90
21429;DHT22;10875;50.444;30.540;2022-08-21T06:22:05;20.30;99.90
21429;DHT22;10875;50.444;30.540;2022-08-21T06:24:31;20.50;99.90
21429;DHT22;10875;50.444;30.540;2022-08-21T06:26:57;20.50;99.90
21429;DHT22;10875;50.444;30.540;2022-08-21T06:29:23;20.50;99.90
21429;DHT22;10875;50.444;30.540;2022-08-21T06:31:51;20.50;99.90
21429;DHT22;10875;50.444;30.540;2022-08-21T06:34:17;20.50;99.90
21429;DHT22;10875;50.444;30.540;2022-08-21T06:36:43;20.60;99.90
21429;DHT22;10875;50.444;30.540;2022-08-21T06:39:10;20.70;99.90
21429;DHT22;10875;50.444;30.540;2022-08-21T06:41:35;20.80;99.90
21429;DHT22;10875;50.444;30.540;2022-08-21T06:44:01;20.90;99.90
21429;DHT22;10875;50.444;30.540;2022-08-21T06:46:30;21.00;99.90
21429;DHT22;10875;50.444;30.540;2022-08-21T06:48:57;20.90;99.90
21429;DHT22;10875;50.444;30.540;2022-08-21T06:51:23;20.90;99.90
21429;DHT22;10875;50.444;30.540;2022-08-21T06:53:49;21.00;99.90
21429;DHT22;10875;50.444;30.540;2022-08-21T06:56:14;21.20;99.90
21429;DHT22;10875;50.444;30.540;2022-08-21T06:58:40;21.30;99.90
21429;DHT22;10875;50.444;30.540;2022-08-21T07:01:06;21.40;99.90
21429;DHT22;10875;50.444;30.540;2022-08-21T07:03:35;21.30;99.90
21429;DHT22;10875;50.444;30.540;2022-08-21T07:06:01;21.30;99.90
21429;DHT22;10875;50.444;30.540;2022-08-21T07:08:28;21.50;99.90
21429;DHT22;10875;50.444;30.540;2022-08-21T07:10:56;21.60;99.90
21429;DHT22;10875;50.444;30.540;2022-08-21T07:13:22;21.70;99.90
21429;DHT22;10875;50.444;30.540;2022-08-21T07:15:48;21.80;99.90
21429;DHT22;10875;50.444;30.540;2022-08-21T07:18:14;21.90;99.90
21429;DHT22;10875;50.444;30.540;2022-08-21T07:20:40;22.00;99.90
21429;DHT22;10875;50.444;30.540;2022-08-21T07:23:28;22.20;99.90
21429;DHT22;10875;50.444;30.540;2022-08-21T07:25:52;22.30;99.90
21429;DHT22;10875;50.444;30.540;2022-08-21T07:28:18;22.40;99.90
21429;DHT22;10875;50.444;30.540;2022-08-21T07:30:44;22.50;99.90
21429;DHT22;10875;50.444;30.540;2022-08-21T07:33:09;22.40;99.90
21429;DHT22;10875;50.444;30.540;2022-08-21T07:35:35;22.50;99.90
21429;DHT22;10875;50.444;30.540;2022-08-21T07:38:00;22.50;99.90
21429;DHT22;10875;50.444;30.540;2022-08-21T07:40:26;22.50;99.90
21429;DHT22;10875;50.444;30.540;2022-08-21T07:42:52;22.50;99.90
21429;DHT22;10875;50.444;30.540;2022-08-21T07:45:22;22.60;99.90
21429;DHT22;10875;50.444;30.540;2022-08-21T07:47:50;22.70;99.90
21429;DHT22;10875;50.444;30.540;2022-08-21T07:50:16;22.90;99.90
21429;DHT22;10875;50.444;30.540;2022-08-21T07:52:42;23.10;99.90
21429;DHT22;10875;50.444;30.540;2022-08-21T07:55:11;23.10;99.90
21429;DHT22;10875;50.444;30.540;2022-08-21T07:57:37;23.10;99.90
21429;DHT22;10875;50.444;30.540;2022-08-21T08:00:05;23.20;99.90
21429;DHT22;10875;50.444;30.540;2022-08-21T08:02:31;23.30;99.90
21429;DHT22;10875;50.444;30.540;2022-08-21T08:04:59;23.40;99.90
21429;DHT22;10875;50.444;30.540;2022-08-21T08:07:26;23.50;99.90
21429;DHT22;10875;50.444;30.540;2022-08-21T08:09:51;23.50;99.90
21429;DHT22;10875;50.444;30.540;2022-08-21T08:12:17;23.60;99.90
21429;DHT22;10875;50.444;30.540;2022-08-21T08:14:44;23.70;99.90
21429;DHT22;10875;50.444;30.540;2022-08-21T08:17:09;23.90;99.90
21429;DHT22;10875;50.444;30.540;2022-08-21T08:19:35;24.10;99.90
21429;DHT22;10875;50.444;30.540;2022-08-21T08:22:01;24.10;99.90
21429;DHT22;10875;50.444;30.540;2022-08-21T08:24:26;24.10;99.90
21429;DHT22;10875;50.444;30.540;2022-08-21T08:26:52;24.10;99.90
21429;DHT22;10875;50.444;30.540;2022-08-21T08:29:20;24.10;99.90
21429;DHT22;10875;50.444;30.540;2022-08-21T08:31:46;24.10;99.90
21429;DHT22;10875;50.444;30.540;2022-08-21T08:34:11;24.30;99.90
21429;DHT22;10875;50.444;30.540;2022-08-21T08:36:37;24.40;99.90
21429;DHT22;10875;50.444;30.540;2022-08-21T08:39:04;24.60;99.90
21429;DHT22;10875;50.444;30.540;2022-08-21T08:41:29;24.70;99.90
21429;DHT22;10875;50.444;30.540;2022-08-21T08:44:01;24.70;99.90
21429;DHT22;10875;50.444;30.540;2022-08-21T08:46:50;24.90;99.90
21429;DHT22;10875;50.444;30.540;2022-08-21T08:49:39;25.20;99.90
21429;DHT22;10875;50.444;30.540;2022-08-21T08:52:18;25.50;99.90
21429;DHT22;10875;50.444;30.540;2022-08-21T08:54:59;25.60;99.90
21429;DHT22;10875;50.444;30.540;2022-08-21T08:57:26;25.70;99.90
21429;DHT22;10875;50.444;30.540;2022-08-21T08:59:54;25.60;99.90
21429;DHT22;10875;50.444;30.540;2022-08-21T09:02:21;25.80;99.90
21429;DHT22;10875;50.444;30.540;2022-08-21T09:04:50;25.90;99.90
21429;DHT22;10875;50.444;30.540;2022-08-21T09:07:58;26.00;99.90
21429;DHT22;10875;50.444;30.540;2022-08-21T09:10:40;26.20;99.90
21429;DHT22;10875;50.444;30.540;2022-08-21T09:13:41;26.40;99.90
21429;DHT22;10875;50.444;30.540;2022-08-21T09:16:54;26.50;99.90
21429;DHT22;10875;50.444;30.540;2022-08-21T09:19:28;26.60;99.90
21429;DHT22;10875;50.444;30.540;2022-08-21T09:22:14;26.50;99.90
21429;DHT22;10875;50.444;30.540;2022-08-21T09:27:16;26.60;99.90
21429;DHT22;10875;50.444;30.540;2022-08-21T09:29:45;26.80;99.90
21429;DHT22;10875;50.444;30.540;2022-08-21T09:32:18;26.80;99.90
21429;DHT22;10875;50.444;30.540;2022-08-21T09:35:16;26.80;99.90
21429;DHT22;10875;50.444;30.540;2022-08-21T09:38:00;26.70;99.90
21429;DHT22;10875;50.444;30.540;2022-08-21T09:40:45;26.50;99.90
21429;DHT22;10875;50.444;30.540;2022-08-21T09:45:37;26.40;99.90
21429;DHT22;10875;50.444;30.540;2022-08-21T09:48:24;26.40;99.90
21429;DHT22;10875;50.444;30.540;2022-08-21T09:50:51;26.40;99.90
21429;DHT22;10875;50.444;30.540;2022-08-21T09:53:26;26.60;99.90
21429;DHT22;10875;50.444;30.540;2022-08-21T09:55:59;26.60;99.90
21429;DHT22;10875;50.444;30.540;2022-08-21T09:58:47;26.70;99.90
21429;DHT22;10875;50.444;30.540;2022-08-21T10:01:24;26.70;99.90
21429;DHT22;10875;50.444;30.540;2022-08-21T10:04:10;26.90;99.90
21429;DHT22;10875;50.444;30.540;2022-08-21T10:06:36;27.00;99.90
21429;DHT22;10875;50.444;30.540;2022-08-21T10:09:12;27.20;99.90
21429;DHT22;10875;50.444;30.540;2022-08-21T10:11:39;27.20;99.90
21429;DHT22;10875;50.444;30.540;2022-08-21T10:14:31;27.30;99.90
21429;DHT22;10875;50.444;30.540;2022-08-21T10:22:20;27.50;99.90
21429;DHT22;10875;50.444;30.540;2022-08-21T10:27:41;27.30;99.90
21429;DHT22;10875;50.444;30.540;2022-08-21T10:30:41;27.40;99.90
21429;DHT22;10875;50.444;30.540;2022-08-21T10:36:32;27.50;99.90
21429;DHT22;10875;50.444;30.540;2022-08-21T10:39:27;27.50;99.90
21429;DHT22;10875;50.444;30.540;2022-08-21T10:50:12;27.80;99.50
21429;DHT22;10875;50.444;30.540;2022-08-21T10:55:48;27.60;99.30
21429;DHT22;10875;50.444;30.540;2022-08-21T10:58:25;27.60;99.30
21429;DHT22;10875;50.444;30.540;2022-08-21T11:00:58;27.90;99.30
21429;DHT22;10875;50.444;30.540;2022-08-21T11:03:42;28.00;99.00
21429;DHT22;10875;50.444;30.540;2022-08-21T11:08:41;28.00;98.40
21429;DHT22;10875;50.444;30.540;2022-08-21T11:11:34;27.70;98.80
21429;DHT22;10875;50.444;30.540;2022-08-21T11:14:04;27.70;98.70
21429;DHT22;10875;50.444;30.540;2022-08-21T11:16:41;28.00;98.60
21429;DHT22;10875;50.444;30.540;2022-08-21T11:19:30;28.50;97.70
21429;DHT22;10875;50.444;30.540;2022-08-21T11:24:51;28.80;96.80
21429;DHT22;10875;50.444;30.540;2022-08-21T11:27:26;28.90;97.30
21429;DHT22;10875;50.444;30.540;2022-08-21T11:29:59;29.20;96.80
21429;DHT22;10875;50.444;30.540;2022-08-21T11:40:46;29.70;95.40
21429;DHT22;10875;50.444;30.540;2022-08-21T11:45:56;29.50;95.40
21429;DHT22;10875;50.444;30.540;2022-08-21T11:50:57;29.00;95.80
21429;DHT22;10875;50.444;30.540;2022-08-21T11:53:37;29.10;95.70
21429;DHT22;10875;50.444;30.540;2022-08-21T11:56:12;29.20;95.20
21429;DHT22;10875;50.444;30.540;2022-08-21T11:58:51;29.10;95.30
21429;DHT22;10875;50.444;30.540;2022-08-21T12:01:40;29.00;95.40
21429;DHT22;10875;50.444;30.540;2022-08-21T12:06:48;28.90;95.80
21429;DHT22;10875;50.444;30.540;2022-08-21T12:12:01;28.60;96.00
21429;DHT22;10875;50.444;30.540;2022-08-21T12:14:46;28.30;96.40
21429;DHT22;10875;50.444;30.540;2022-08-21T12:17:24;28.20;96.90
21429;DHT22;10875;50.444;30.540;2022-08-21T12:20:14;28.00;97.50
21429;DHT22;10875;50.444;30.540;2022-08-21T12:22:41;28.00;97.50
21429;DHT22;10875;50.444;30.540;2022-08-21T12:25:17;28.00;97.60
21429;DHT22;10875;50.444;30.540;2022-08-21T12:27:50;28.00;97.10
21429;DHT22;10875;50.444;30.540;2022-08-21T12:32:58;28.00;97.60
21429;DHT22;10875;50.444;30.540;2022-08-21T12:35:37;28.00;97.60
21429;DHT22;10875;50.444;30.540;2022-08-21T12:38:15;28.00;97.80
21429;DHT22;10875;50.444;30.540;2022-08-21T12:41:03;27.90;97.90
21429;DHT22;10875;50.444;30.540;2022-08-21T12:45:59;28.00;97.80
21429;DHT22;10875;50.444;30.540;2022-08-21T12:48:39;28.00;97.70
21429;DHT22;10875;50.444;30.540;2022-08-21T12:51:17;28.00;97.90
21429;DHT22;10875;50.444;30.540;2022-08-21T12:56:18;27.70;98.50
21429;DHT22;10875;50.444;30.540;2022-08-21T12:59:00;27.40;98.60
21429;DHT22;10875;50.444;30.540;2022-08-21T13:01:45;27.40;98.90
21429;DHT22;10875;50.444;30.540;2022-08-21T13:04:15;27.50;99.10
21429;DHT22;10875;50.444;30.540;2022-08-21T13:06:44;27.60;98.70
21429;DHT22;10875;50.444;30.540;2022-08-21T13:09:13;27.40;98.50
21429;DHT22;10875;50.444;30.540;2022-08-21T13:11:41;27.30;99.00
21429;DHT22;10875;50.444;30.540;2022-08-21T13:16:45;27.20;99.00
21429;DHT22;10875;50.444;30.540;2022-08-21T13:19:11;27.20;99.60
21429;DHT22;10875;50.444;30.540;2022-08-21T13:21:44;27.20;99.40
21429;DHT22;10875;50.444;30.540;2022-08-21T13:26:40;27.20;99.70
21429;DHT22;10875;50.444;30.540;2022-08-21T13:29:15;27.20;99.50
21429;DHT22;10875;50.444;30.540;2022-08-21T13:31:48;27.30;99.60
21429;DHT22;10875;50.444;30.540;2022-08-21T13:34:14;27.40;99.70
21429;DHT22;10875;50.444;30.540;2022-08-21T13:36:41;27.40;99.90
21429;DHT22;10875;50.444;30.540;2022-08-21T13:39:10;27.50;99.40
21429;DHT22;10875;50.444;30.540;2022-08-21T13:41:39;27.40;99.30
21429;DHT22;10875;50.444;30.540;2022-08-21T13:46:40;27.30;99.50
21429;DHT22;10875;50.444;30.540;2022-08-21T13:49:08;27.30;99.70
21429;DHT22;10875;50.444;30.540;2022-08-21T13:51:35;27.20;99.80
21429;DHT22;10875;50.444;30.540;2022-08-21T13:54:02;27.20;99.70
21429;DHT22;10875;50.444;30.540;2022-08-21T13:56:44;27.30;99.60
21429;DHT22;10875;50.444;30.540;2022-08-21T13:59:10;27.30;99.90
21429;DHT22;10875;50.444;30.540;2022-08-21T14:04:36;27.00;99.90
21429;DHT22;10875;50.444;30.540;2022-08-21T14:07:13;26.90;99.90
21429;DHT22;10875;50.444;30.540;2022-08-21T14:09:42;26.80;99.90
21429;DHT22;10875;50.444;30.540;2022-08-21T14:12:40;26.80;99.90
21429;DHT22;10875;50.444;30.540;2022-08-21T14:15:08;26.80;99.90
21429;DHT22;10875;50.444;30.540;2022-08-21T14:17:38;26.80;99.90
21429;DHT22;10875;50.444;30.540;2022-08-21T14:20:12;26.90;99.90
21429;DHT22;10875;50.444;30.540;2022-08-21T14:22:45;26.90;99.90
21429;DHT22;10875;50.444;30.540;2022-08-21T14:25:14;26.80;99.90
21429;DHT22;10875;50.444;30.540;2022-08-21T14:27:57;26.60;99.90
21429;DHT22;10875;50.444;30.540;2022-08-21T14:32:52;26.50;99.90
21429;DHT22;10875;50.444;30.540;2022-08-21T14:35:19;26.40;99.90
21429;DHT22;10875;50.444;30.540;2022-08-21T14:37:47;26.30;99.90
21429;DHT22;10875;50.444;30.540;2022-08-21T14:40:16;26.30;99.90
21429;DHT22;10875;50.444;30.540;2022-08-21T14:42:43;26.20;99.90
21429;DHT22;10875;50.444;30.540;2022-08-21T14:45:26;26.20;99.90
21429;DHT22;10875;50.444;30.540;2022-08-21T14:47:52;26.20;99.90
21429;DHT22;10875;50.444;30.540;2022-08-21T14:50:18;26.20;99.90
21429;DHT22;10875;50.444;30.540;2022-08-21T14:52:44;26.20;99.90
21429;DHT22;10875;50.444;30.540;2022-08-21T14:55:12;26.10;99.90
21429;DHT22;10875;50.444;30.540;2022-08-21T14:57:46;26.10;99.90
21429;DHT22;10875;50.444;30.540;2022-08-21T15:00:15;26.10;99.90
21429;DHT22;10875;50.444;30.540;2022-08-21T15:02:42;26.10;99.90
21429;DHT22;10875;50.444;30.540;2022-08-21T15:05:08;26.10;99.90
21429;DHT22;10875;50.444;30.540;2022-08-21T15:07:33;26.10;99.90
21429;DHT22;10875;50.444;30.540;2022-08-21T15:09:59;26.10;99.90
21429;DHT22;10875;50.444;30.540;2022-08-21T15:12:25;26.00;99.90
21429;DHT22;10875;50.444;30.540;2022-08-21T15:14:51;26.00;99.90
21429;DHT22;10875;50.444;30.540;2022-08-21T15:17:17;26.00;99.90
21429;DHT22;10875;50.444;30.540;2022-08-21T15:19:42;25.90;99.90
21429;DHT22;10875;50.444;30.540;2022-08-21T15:22:08;25.90;99.90
21429;DHT22;10875;50.444;30.540;2022-08-21T15:24:34;25.90;99.90
21429;DHT22;10875;50.444;30.540;2022-08-21T15:27:01;25.90;99.90
21429;DHT22;10875;50.444;30.540;2022-08-21T15:29:29;25.80;99.90
21429;DHT22;10875;50.444;30.540;2022-08-21T15:31:59;25.70;99.90
21429;DHT22;10875;50.444;30.540;2022-08-21T15:34:28;25.70;99.90
21429;DHT22;10875;50.444;30.540;2022-08-21T15:36:56;25.70;99.90
21429;DHT22;10875;50.444;30.540;2022-08-21T15:39:22;25.70;99.90
21429;DHT22;10875;50.444;30.540;2022-08-21T15:41:47;25.60;99.90
21429;DHT22;10875;50.444;30.540;2022-08-21T15:44:14;25.60;99.90
21429;DHT22;10875;50.444;30.540;2022-08-21T15:46:40;25.60;99.90
21429;DHT22;10875;50.444;30.540;2022-08-21T15:49:07;25.60;99.90
21429;DHT22;10875;50.444;30.540;2022-08-21T15:51:33;25.50;99.90
21429;DHT22;10875;50.444;30.540;2022-08-21T15:53:59;25.50;99.90
21429;DHT22;10875;50.444;30.540;2022-08-21T15:56:33;25.50;99.90
21429;DHT22;10875;50.444;30.540;2022-08-21T15:59:02;25.50;99.90
21429;DHT22;10875;50.444;30.540;2022-08-21T16:01:28;25.40;99.90
21429;DHT22;10875;50.444;30.540;2022-08-21T16:03:54;25.40;99.90
21429;DHT22;10875;50.444;30.540;2022-08-21T16:06:21;25.40;99.90
21429;DHT22;10875;50.444;30.540;2022-08-21T16:08:46;25.30;99.90
21429;DHT22;10875;50.444;30.540;2022-08-21T16:11:14;25.30;99.90
21429;DHT22;10875;50.444;30.540;2022-08-21T16:13:43;25.20;99.90
21429;DHT22;10875;50.444;30.540;2022-08-21T16:16:16;25.20;99.90
21429;DHT22;10875;50.444;30.540;2022-08-21T16:18:43;25.10;99.90
21429;DHT22;10875;50.444;30.540;2022-08-21T16:21:09;25.00;99.90
21429;DHT22;10875;50.444;30.540;2022-08-21T16:23:35;25.00;99.90
21429;DHT22;10875;50.444;30.540;2022-08-21T16:26:03;24.90;99.90
21429;DHT22;10875;50.444;30.540;2022-08-21T16:28:30;24.90;99.90
21429;DHT22;10875;50.444;30.540;2022-08-21T16:30:56;24.80;99.90
21429;DHT22;10875;50.444;30.540;2022-08-21T16:33:35;24.80;99.90
21429;DHT22;10875;50.444;30.540;2022-08-21T16:36:02;24.80;99.90
21429;DHT22;10875;50.444;30.540;2022-08-21T16:38:28;24.70;99.90
21429;DHT22;10875;50.444;30.540;2022-08-21T16:40:54;24.70;99.90
21429;DHT22;10875;50.444;30.540;2022-08-21T16:43:25;24.60;99.90
21429;DHT22;10875;50.444;30.540;2022-08-21T16:45:53;24.60;99.90
21429;DHT22;10875;50.444;30.540;2022-08-21T16:48:19;24.60;99.90